Milnrow, United Kingdom
Current Conditions -  °F | °C
As of 8:20 AM on Thursday 27 Nov 2014 (Local Time) from EGCC Reporting Station
Drizzle Drizzle  
Wind Chill: 45°   Ceiling: 1200
Heat Index: 45°   Visibility: 2.1mi
Dew Point: 45°   Wind: 0mph
Humidity: 100%   Direction: NA
Pressure: 29.62"   Gusts: NA
Location:  53.61°N, 2.11°W
Report Text: EGCC 270820Z 00000KT 3500 -DZ BR FEW008 BKN012 07/07 Q1003
Loading
Personal Weather Stations






























Interactive Weather Map New forecast layout! Learn more

10-Day Weather Forecast

Advertisements
Track Severe Weather on mobile